sensor_id;sensor_type;location;lat;lon;timestamp;pressure;altitude;pressure_sealevel;temperature;humidity
69909;BME280;57190;47.918;8.112;2023-02-02T00:01:19;91496.91;;;0.55;76.46
69909;BME280;57190;47.918;8.112;2023-02-02T00:03:46;91482.22;;;0.60;76.62
69909;BME280;57190;47.918;8.112;2023-02-02T00:06:13;91492.75;;;0.67;76.11
69909;BME280;57190;47.918;8.112;2023-02-02T00:08:38;91488.25;;;0.61;76.53
69909;BME280;57190;47.918;8.112;2023-02-02T00:11:04;91491.09;;;0.59;76.56
69909;BME280;57190;47.918;8.112;2023-02-02T00:13:31;91483.00;;;0.61;76.57
69909;BME280;57190;47.918;8.112;2023-02-02T00:15:56;91487.88;;;0.64;76.43
69909;BME280;57190;47.918;8.112;2023-02-02T00:18:21;91482.56;;;0.57;76.51
69909;BME280;57190;47.918;8.112;2023-02-02T00:20:47;91479.16;;;0.57;76.84
69909;BME280;57190;47.918;8.112;2023-02-02T00:23:16;91490.44;;;0.57;76.95
69909;BME280;57190;47.918;8.112;2023-02-02T00:25:41;91501.59;;;0.59;76.71
69909;BME280;57190;47.918;8.112;2023-02-02T00:28:07;91483.22;;;0.59;77.20
69909;BME280;57190;47.918;8.112;2023-02-02T00:30:32;91489.88;;;0.62;76.98
69909;BME280;57190;47.918;8.112;2023-02-02T00:32:58;91482.84;;;0.62;77.04
69909;BME280;57190;47.918;8.112;2023-02-02T00:35:23;91493.72;;;0.59;77.17
69909;BME280;57190;47.918;8.112;2023-02-02T00:37:49;91483.00;;;0.61;77.27
69909;BME280;57190;47.918;8.112;2023-02-02T00:40:14;91494.50;;;0.60;77.33
69909;BME280;57190;47.918;8.112;2023-02-02T00:42:39;91487.81;;;0.57;77.14
69909;BME280;57190;47.918;8.112;2023-02-02T00:45:05;91497.75;;;0.62;77.20
69909;BME280;57190;47.918;8.112;2023-02-02T00:47:41;91492.88;;;0.59;77.81
69909;BME280;57190;47.918;8.112;2023-02-02T00:50:08;91492.94;;;0.66;77.55
69909;BME280;57190;47.918;8.112;2023-02-02T00:52:34;91503.59;;;0.57;77.82
69909;BME280;57190;47.918;8.112;2023-02-02T00:54:59;91494.50;;;0.60;77.97
69909;BME280;57190;47.918;8.112;2023-02-02T00:57:25;91497.75;;;0.62;77.95
69909;BME280;57190;47.918;8.112;2023-02-02T00:59:50;91494.50;;;0.60;77.46
69909;BME280;57190;47.918;8.112;2023-02-02T01:02:15;91498.97;;;0.59;78.18
69909;BME280;57190;47.918;8.112;2023-02-02T01:04:41;91497.34;;;0.58;77.87
69909;BME280;57190;47.918;8.112;2023-02-02T01:07:06;91503.38;;;0.59;78.10
69909;BME280;57190;47.918;8.112;2023-02-02T01:09:32;91503.22;;;0.60;77.92
69909;BME280;57190;47.918;8.112;2023-02-02T01:11:57;91511.88;;;0.61;78.29
69909;BME280;57190;47.918;8.112;2023-02-02T01:14:22;91504.22;;;0.59;78.47
69909;BME280;57190;47.918;8.112;2023-02-02T01:16:48;91505.56;;;0.55;79.13
69909;BME280;57190;47.918;8.112;2023-02-02T01:19:14;91513.50;;;0.62;78.79
69909;BME280;57190;47.918;8.112;2023-02-02T01:21:41;91512.47;;;0.56;79.15
69909;BME280;57190;47.918;8.112;2023-02-02T01:24:07;91516.91;;;0.56;79.16
69909;BME280;57190;47.918;8.112;2023-02-02T01:26:32;91522.34;;;0.54;78.95
69909;BME280;57190;47.918;8.112;2023-02-02T01:28:58;91522.78;;;0.58;79.38
69909;BME280;57190;47.918;8.112;2023-02-02T01:31:24;91529.84;;;0.57;78.90
69909;BME280;57190;47.918;8.112;2023-02-02T01:33:50;91520.75;;;0.60;79.15
69909;BME280;57190;47.918;8.112;2023-02-02T01:36:22;91526.69;;;0.69;79.10
69909;BME280;57190;47.918;8.112;2023-02-02T01:38:48;91531.94;;;0.69;78.93
69909;BME280;57190;47.918;8.112;2023-02-02T01:41:18;91527.84;;;0.59;79.18
69909;BME280;57190;47.918;8.112;2023-02-02T01:46:17;91536.09;;;0.56;78.86
69909;BME280;57190;47.918;8.112;2023-02-02T01:48:50;91530.84;;;0.56;78.92
69909;BME280;57190;47.918;8.112;2023-02-02T01:51:19;91531.09;;;0.61;78.90
69909;BME280;57190;47.918;8.112;2023-02-02T01:53:46;91534.31;;;0.63;78.66
69909;BME280;57190;47.918;8.112;2023-02-02T01:56:17;91544.25;;;0.68;78.19
69909;BME280;57190;47.918;8.112;2023-02-02T01:58:45;91540.03;;;0.67;78.19
69909;BME280;57190;47.918;8.112;2023-02-02T02:01:11;91541.41;;;0.63;78.67
69909;BME280;57190;47.918;8.112;2023-02-02T02:03:37;91542.03;;;0.65;77.88
69909;BME280;57190;47.918;8.112;2023-02-02T02:06:10;91537.28;;;0.82;77.72
69909;BME280;57190;47.918;8.112;2023-02-02T02:08:57;91529.75;;;0.72;77.59
69909;BME280;57190;47.918;8.112;2023-02-02T02:11:25;91532.75;;;0.69;77.93
69909;BME280;57190;47.918;8.112;2023-02-02T02:13:52;91526.13;;;0.73;77.86
69909;BME280;57190;47.918;8.112;2023-02-02T02:19:51;91515.56;;;0.67;77.87
69909;BME280;57190;47.918;8.112;2023-02-02T02:37:35;91496.81;;;0.70;76.66
69909;BME280;57190;47.918;8.112;2023-02-02T02:42:32;91496.19;;;0.68;76.14
69909;BME280;57190;47.918;8.112;2023-02-02T02:45:01;91490.94;;;0.68;76.53
69909;BME280;57190;47.918;8.112;2023-02-02T02:47:29;91482.69;;;0.71;75.89
69909;BME280;57190;47.918;8.112;2023-02-02T02:49:55;91480.66;;;0.73;75.84
69909;BME280;57190;47.918;8.112;2023-02-02T02:52:21;91488.59;;;0.80;75.14
69909;BME280;57190;47.918;8.112;2023-02-02T02:54:49;91488.16;;;0.76;74.97
69909;BME280;57190;47.918;8.112;2023-02-02T03:05:55;91486.19;;;0.85;74.23
69909;BME280;57190;47.918;8.112;2023-02-02T03:08:31;91498.50;;;0.84;74.14
69909;BME280;57190;47.918;8.112;2023-02-02T03:11:00;91500.34;;;0.84;74.16
69909;BME280;57190;47.918;8.112;2023-02-02T03:13:30;91490.84;;;0.83;73.80
69909;BME280;57190;47.918;8.112;2023-02-02T03:15:56;91494.69;;;0.87;74.17
69909;BME280;57190;47.918;8.112;2023-02-02T03:18:25;91498.97;;;0.94;73.59
69909;BME280;57190;47.918;8.112;2023-02-02T03:20:51;91501.00;;;0.92;73.34
69909;BME280;57190;47.918;8.112;2023-02-02T03:23:17;91500.56;;;0.89;73.32
69909;BME280;57190;47.918;8.112;2023-02-02T03:25:43;91505.63;;;0.90;73.36
69909;BME280;57190;47.918;8.112;2023-02-02T03:28:09;91508.50;;;0.96;73.19
69909;BME280;57190;47.918;8.112;2023-02-02T03:30:35;91503.81;;;0.91;73.67
69909;BME280;57190;47.918;8.112;2023-02-02T03:33:02;91501.19;;;0.91;74.41
69909;BME280;57190;47.918;8.112;2023-02-02T03:35:29;91499.94;;;0.87;73.76
69909;BME280;57190;47.918;8.112;2023-02-02T03:37:55;91505.03;;;0.95;73.85
69909;BME280;57190;47.918;8.112;2023-02-02T03:40:20;91513.31;;;0.92;73.83
69909;BME280;57190;47.918;8.112;2023-02-02T03:42:46;91512.50;;;0.91;73.83
69909;BME280;57190;47.918;8.112;2023-02-02T03:45:11;91515.75;;;0.93;73.37
69909;BME280;57190;47.918;8.112;2023-02-02T03:47:36;91519.81;;;0.96;73.51
69909;BME280;57190;47.918;8.112;2023-02-02T03:50:02;91516.16;;;0.97;73.90
69909;BME280;57190;47.918;8.112;2023-02-02T03:52:28;91519.81;;;0.96;73.77
69909;BME280;57190;47.918;8.112;2023-02-02T03:54:53;91520.00;;;0.94;73.87
69909;BME280;57190;47.918;8.112;2023-02-02T03:57:19;91523.47;;;1.02;73.83
69909;BME280;57190;47.918;8.112;2023-02-02T03:59:44;91517.38;;;0.94;73.78
69909;BME280;57190;47.918;8.112;2023-02-02T04:02:10;91524.25;;;0.96;73.99
69909;BME280;57190;47.918;8.112;2023-02-02T04:04:35;91518.59;;;0.99;73.78
69909;BME280;57190;47.918;8.112;2023-02-02T04:07:01;91516.38;;;1.02;73.89
69909;BME280;57190;47.918;8.112;2023-02-02T04:09:26;91534.03;;;1.08;73.91
69909;BME280;57190;47.918;8.112;2023-02-02T04:11:53;91533.63;;;1.12;73.44
69909;BME280;57190;47.918;8.112;2023-02-02T04:14:18;91533.59;;;1.05;73.99
69909;BME280;57190;47.918;8.112;2023-02-02T04:16:44;91537.25;;;1.04;74.33
69909;BME280;57190;47.918;8.112;2023-02-02T04:19:10;91532.31;;;0.94;74.97
69909;BME280;57190;47.918;8.112;2023-02-02T04:22:08;91530.78;;;1.06;74.22
69909;BME280;57190;47.918;8.112;2023-02-02T04:24:33;91530.53;;;1.01;74.62
69909;BME280;57190;47.918;8.112;2023-02-02T04:26:58;91524.91;;;1.04;74.87
69909;BME280;57190;47.918;8.112;2023-02-02T04:29:24;91523.06;;;0.98;75.24
69909;BME280;57190;47.918;8.112;2023-02-02T04:31:50;91514.53;;;0.96;75.77
69909;BME280;57190;47.918;8.112;2023-02-02T04:34:16;91520.22;;;1.00;75.41
69909;BME280;57190;47.918;8.112;2023-02-02T04:36:41;91529.09;;;0.99;75.59
69909;BME280;57190;47.918;8.112;2023-02-02T04:39:10;91526.47;;;0.99;75.83
69909;BME280;57190;47.918;8.112;2023-02-02T04:41:36;91522.06;;;0.99;75.71
69909;BME280;57190;47.918;8.112;2023-02-02T04:44:01;91526.06;;;0.95;75.73
69909;BME280;57190;47.918;8.112;2023-02-02T04:46:26;91522.22;;;0.98;75.98
69909;BME280;57190;47.918;8.112;2023-02-02T04:48:53;91519.84;;;1.03;75.41
69909;BME280;57190;47.918;8.112;2023-02-02T04:51:18;91519.59;;;0.98;76.01
69909;BME280;57190;47.918;8.112;2023-02-02T04:53:44;91531.16;;;1.03;75.82
69909;BME280;57190;47.918;8.112;2023-02-02T04:56:17;91529.34;;;1.04;75.91
69909;BME280;57190;47.918;8.112;2023-02-02T04:58:43;91530.16;;;1.04;76.12
69909;BME280;57190;47.918;8.112;2023-02-02T05:01:12;91539.47;;;1.07;76.11
69909;BME280;57190;47.918;8.112;2023-02-02T05:03:38;91546.75;;;1.05;76.26
69909;BME280;57190;47.918;8.112;2023-02-02T05:06:04;91540.66;;;1.04;76.36
69909;BME280;57190;47.918;8.112;2023-02-02T05:08:30;91536.97;;;0.99;76.38
69909;BME280;57190;47.918;8.112;2023-02-02T05:10:55;91543.25;;;0.98;76.57
69909;BME280;57190;47.918;8.112;2023-02-02T05:13:21;91535.19;;;0.99;76.70
69909;BME280;57190;47.918;8.112;2023-02-02T05:15:47;91534.13;;;0.93;76.56
69909;BME280;57190;47.918;8.112;2023-02-02T05:18:12;91538.63;;;1.00;76.63
69909;BME280;57190;47.918;8.112;2023-02-02T05:20:38;91540.81;;;0.96;76.88
69909;BME280;57190;47.918;8.112;2023-02-02T05:23:03;91538.00;;;0.98;76.68
69909;BME280;57190;47.918;8.112;2023-02-02T05:25:29;91552.19;;;1.03;76.34
69909;BME280;57190;47.918;8.112;2023-02-02T05:27:54;91539.88;;;1.04;76.36
69909;BME280;57190;47.918;8.112;2023-02-02T05:30:19;91542.88;;;1.01;76.88
69909;BME280;57190;47.918;8.112;2023-02-02T05:32:45;91535.63;;;1.03;76.82
69909;BME280;57190;47.918;8.112;2023-02-02T05:35:10;91540.03;;;1.02;76.76
69909;BME280;57190;47.918;8.112;2023-02-02T05:37:36;91542.66;;;1.02;77.11
69909;BME280;57190;47.918;8.112;2023-02-02T05:40:02;91538.63;;;1.00;77.43
69909;BME280;57190;47.918;8.112;2023-02-02T05:42:27;91542.72;;;1.09;76.95
69909;BME280;57190;47.918;8.112;2023-02-02T05:44:53;91546.75;;;1.05;76.93
69909;BME280;57190;47.918;8.112;2023-02-02T05:47:18;91551.81;;;1.06;77.18
69909;BME280;57190;47.918;8.112;2023-02-02T05:49:44;91552.44;;;1.08;76.69
69909;BME280;57190;47.918;8.112;2023-02-02T05:52:15;91543.09;;;1.06;76.53
69909;BME280;57190;47.918;8.112;2023-02-02T05:54:42;91548.13;;;1.01;76.70
69909;BME280;57190;47.918;8.112;2023-02-02T05:57:07;91548.06;;;0.94;77.06
69909;BME280;57190;47.918;8.112;2023-02-02T05:59:33;91565.66;;;0.93;76.88
69909;BME280;57190;47.918;8.112;2023-02-02T06:01:58;91558.00;;;0.99;77.01
69909;BME280;57190;47.918;8.112;2023-02-02T06:04:24;91560.47;;;1.00;76.88
69909;BME280;57190;47.918;8.112;2023-02-02T06:06:49;91568.34;;;1.00;76.79
69909;BME280;57190;47.918;8.112;2023-02-02T06:09:15;91570.41;;;1.05;76.90
69909;BME280;57190;47.918;8.112;2023-02-02T06:11:42;91566.72;;;0.99;76.96
69909;BME280;57190;47.918;8.112;2023-02-02T06:14:08;91568.72;;;0.97;77.55
69909;BME280;57190;47.918;8.112;2023-02-02T06:16:33;91569.72;;;0.96;77.64
69909;BME280;57190;47.918;8.112;2023-02-02T06:18:59;91567.50;;;1.00;77.61
69909;BME280;57190;47.918;8.112;2023-02-02T06:21:24;91561.97;;;0.88;77.68
69909;BME280;57190;47.918;8.112;2023-02-02T06:23:50;91563.84;;;0.94;77.88
69909;BME280;57190;47.918;8.112;2023-02-02T06:26:16;91570.34;;;0.98;77.43
69909;BME280;57190;47.918;8.112;2023-02-02T06:28:47;91574.59;;;0.99;77.44
69909;BME280;57190;47.918;8.112;2023-02-02T06:31:13;91569.50;;;0.98;77.00
69909;BME280;57190;47.918;8.112;2023-02-02T06:33:43;91561.88;;;1.03;77.08
69909;BME280;57190;47.918;8.112;2023-02-02T06:36:09;91559.63;;;1.00;77.16
69909;BME280;57190;47.918;8.112;2023-02-02T06:38:34;91569.50;;;0.98;77.24
69909;BME280;57190;47.918;8.112;2023-02-02T06:41:01;91570.50;;;0.97;77.41
69909;BME280;57190;47.918;8.112;2023-02-02T06:43:27;91566.09;;;0.97;77.02
69909;BME280;57190;47.918;8.112;2023-02-02T06:45:53;91568.34;;;1.00;76.73
69909;BME280;57190;47.918;8.112;2023-02-02T06:48:18;91567.13;;;1.03;76.40
69909;BME280;57190;47.918;8.112;2023-02-02T06:50:44;91568.78;;;1.04;75.87
69909;BME280;57190;47.918;8.112;2023-02-02T06:53:09;91570.78;;;1.02;76.38
69909;BME280;57190;47.918;8.112;2023-02-02T06:55:35;91560.47;;;1.07;76.41
69909;BME280;57190;47.918;8.112;2023-02-02T06:58:01;91568.38;;;1.07;75.99
69909;BME280;57190;47.918;8.112;2023-02-02T07:00:27;91563.38;;;1.12;76.25
69909;BME280;57190;47.918;8.112;2023-02-02T07:02:53;91575.44;;;1.06;75.91
69909;BME280;57190;47.918;8.112;2023-02-02T07:05:19;91586.81;;;1.14;74.95
69909;BME280;57190;47.918;8.112;2023-02-02T07:07:45;91581.75;;;1.12;75.33
69909;BME280;57190;47.918;8.112;2023-02-02T07:10:11;91601.16;;;1.11;75.36
69909;BME280;57190;47.918;8.112;2023-02-02T07:12:37;91589.63;;;1.12;74.72
69909;BME280;57190;47.918;8.112;2023-02-02T07:15:03;91593.91;;;1.13;74.61
69909;BME280;57190;47.918;8.112;2023-02-02T07:17:29;91593.69;;;1.15;74.78
69909;BME280;57190;47.918;8.112;2023-02-02T07:19:54;91589.88;;;1.17;74.73
69909;BME280;57190;47.918;8.112;2023-02-02T07:22:20;91597.16;;;1.22;74.19
69909;BME280;57190;47.918;8.112;2023-02-02T07:24:45;91590.06;;;1.16;74.62
69909;BME280;57190;47.918;8.112;2023-02-02T07:27:10;91596.94;;;1.17;74.36
69909;BME280;57190;47.918;8.112;2023-02-02T07:29:36;91601.38;;;1.16;74.55
69909;BME280;57190;47.918;8.112;2023-02-02T07:32:02;91599.00;;;1.21;74.77
69909;BME280;57190;47.918;8.112;2023-02-02T07:34:27;91592.50;;;1.17;74.40
69909;BME280;57190;47.918;8.112;2023-02-02T07:36:53;91600.38;;;1.17;75.01
69909;BME280;57190;47.918;8.112;2023-02-02T07:39:18;91607.06;;;1.20;74.46
69909;BME280;57190;47.918;8.112;2023-02-02T07:41:44;91611.31;;;1.21;74.45
69909;BME280;57190;47.918;8.112;2023-02-02T07:44:12;91616.19;;;1.24;74.78
69909;BME280;57190;47.918;8.112;2023-02-02T07:46:45;91614.41;;;1.31;74.64
69909;BME280;57190;47.918;8.112;2023-02-02T07:49:13;91616.19;;;1.24;74.79
69909;BME280;57190;47.918;8.112;2023-02-02T07:51:39;91617.00;;;1.24;74.74
69909;BME280;57190;47.918;8.112;2023-02-02T07:54:05;91616.84;;;1.33;74.75
69909;BME280;57190;47.918;8.112;2023-02-02T07:56:31;91604.75;;;1.38;74.53
69909;BME280;57190;47.918;8.112;2023-02-02T07:58:57;91599.88;;;1.35;74.18
69909;BME280;57190;47.918;8.112;2023-02-02T08:01:24;91592.19;;;1.34;74.56
69909;BME280;57190;47.918;8.112;2023-02-02T08:03:51;91587.13;;;1.32;74.52
69909;BME280;57190;47.918;8.112;2023-02-02T08:06:29;91596.25;;;1.36;74.54
69909;BME280;57190;47.918;8.112;2023-02-02T08:08:57;91602.50;;;1.35;74.40
69909;BME280;57190;47.918;8.112;2023-02-02T08:11:24;91604.34;;;1.35;75.07
69909;BME280;57190;47.918;8.112;2023-02-02T08:13:52;91617.09;;;1.38;75.04
69909;BME280;57190;47.918;8.112;2023-02-02T08:16:18;91619.47;;;1.33;75.14
69909;BME280;57190;47.918;8.112;2023-02-02T08:18:44;91614.22;;;1.33;75.40
69909;BME280;57190;47.918;8.112;2023-02-02T08:21:10;91618.69;;;1.39;75.32
69909;BME280;57190;47.918;8.112;2023-02-02T08:23:37;91619.31;;;1.41;74.57
69909;BME280;57190;47.918;8.112;2023-02-02T08:26:20;91619.16;;;1.49;74.26
69909;BME280;57190;47.918;8.112;2023-02-02T08:28:48;91610.69;;;1.54;74.60
69909;BME280;57190;47.918;8.112;2023-02-02T08:31:24;91616.97;;;1.53;74.10
69909;BME280;57190;47.918;8.112;2023-02-02T08:33:51;91614.75;;;1.56;73.93
69909;BME280;57190;47.918;8.112;2023-02-02T08:36:19;91610.16;;;1.65;73.89
69909;BME280;57190;47.918;8.112;2023-02-02T08:38:45;91604.31;;;1.70;73.70
69909;BME280;57190;47.918;8.112;2023-02-02T08:41:15;91610.63;;;1.76;73.54
69909;BME280;57190;47.918;8.112;2023-02-02T08:43:41;91610.22;;;1.79;73.04
69909;BME280;57190;47.918;8.112;2023-02-02T08:46:08;91614.69;;;1.85;73.31
69909;BME280;57190;47.918;8.112;2023-02-02T08:48:34;91615.72;;;1.91;72.77
69909;BME280;57190;47.918;8.112;2023-02-02T08:51:00;91623.66;;;1.97;72.63
69909;BME280;57190;47.918;8.112;2023-02-02T08:53:30;91608.25;;;1.94;72.03
69909;BME280;57190;47.918;8.112;2023-02-02T08:56:00;91613.72;;;1.93;72.13
69909;BME280;57190;47.918;8.112;2023-02-02T08:58:34;91609.69;;;1.97;72.55
69909;BME280;57190;47.918;8.112;2023-02-02T09:01:07;91616.97;;;1.95;71.80
69909;BME280;57190;47.918;8.112;2023-02-02T09:03:40;91615.72;;;1.91;72.23
69909;BME280;57190;47.918;8.112;2023-02-02T09:06:14;91616.97;;;1.95;72.50
69909;BME280;57190;47.918;8.112;2023-02-02T09:08:40;91623.63;;;1.91;72.41
69909;BME280;57190;47.918;8.112;2023-02-02T09:11:08;91626.88;;;1.93;72.57
69909;BME280;57190;47.918;8.112;2023-02-02T09:13:35;91625.47;;;1.90;72.29
69909;BME280;57190;47.918;8.112;2023-02-02T09:16:02;91638.19;;;1.86;72.92
69909;BME280;57190;47.918;8.112;2023-02-02T09:18:28;91641.03;;;1.92;72.85
69909;BME280;57190;47.918;8.112;2023-02-02T09:20:53;91641.66;;;1.94;72.23
69909;BME280;57190;47.918;8.112;2023-02-02T09:23:19;91649.78;;;1.99;71.85
69909;BME280;57190;47.918;8.112;2023-02-02T09:25:45;91656.06;;;2.04;72.08
69909;BME280;57190;47.918;8.112;2023-02-02T09:28:11;91664.19;;;2.03;72.26
69909;BME280;57190;47.918;8.112;2023-02-02T09:30:37;91660.38;;;2.12;72.13
69909;BME280;57190;47.918;8.112;2023-02-02T09:33:02;91660.78;;;2.16;71.18
69909;BME280;57190;47.918;8.112;2023-02-02T09:35:28;91656.97;;;2.32;71.29
69909;BME280;57190;47.918;8.112;2023-02-02T09:37:53;91654.78;;;2.42;70.68
69909;BME280;57190;47.918;8.112;2023-02-02T09:40:19;91668.56;;;2.38;70.94
69909;BME280;57190;47.918;8.112;2023-02-02T09:43:05;91673.00;;;2.30;70.92
69909;BME280;57190;47.918;8.112;2023-02-02T09:48:56;91681.13;;;2.42;70.61
69909;BME280;57190;47.918;8.112;2023-02-02T09:51:27;91677.31;;;2.51;70.35
69909;BME280;57190;47.918;8.112;2023-02-02T09:53:59;91686.44;;;2.62;70.28
69909;BME280;57190;47.918;8.112;2023-02-02T09:56:33;91687.88;;;2.58;70.38
69909;BME280;57190;47.918;8.112;2023-02-02T09:59:02;91688.66;;;2.52;69.90
69909;BME280;57190;47.918;8.112;2023-02-02T10:01:33;91690.94;;;2.69;70.07
69909;BME280;57190;47.918;8.112;2023-02-02T10:04:05;91689.13;;;2.82;69.03
69909;BME280;57190;47.918;8.112;2023-02-02T10:06:35;91698.03;;;2.81;69.80
69909;BME280;57190;47.918;8.112;2023-02-02T10:14:44;91706.13;;;2.66;69.66
69909;BME280;57190;47.918;8.112;2023-02-02T10:19:46;91720.34;;;2.79;69.15
69909;BME280;57190;47.918;8.112;2023-02-02T10:22:20;91716.69;;;2.80;69.00
69909;BME280;57190;47.918;8.112;2023-02-02T10:24:48;91712.44;;;2.79;69.71
69909;BME280;57190;47.918;8.112;2023-02-02T10:27:15;91716.50;;;2.88;69.13
69909;BME280;57190;47.918;8.112;2023-02-02T10:29:52;91721.41;;;2.91;68.79
69909;BME280;57190;47.918;8.112;2023-02-02T10:32:27;91718.56;;;2.93;69.73
69909;BME280;57190;47.918;8.112;2023-02-02T10:35:02;91713.31;;;3.06;69.31
69909;BME280;57190;47.918;8.112;2023-02-02T10:45:38;91706.81;;;3.02;69.73
69909;BME280;57190;47.918;8.112;2023-02-02T10:48:20;91708.06;;;3.20;69.33
69909;BME280;57190;47.918;8.112;2023-02-02T10:50:54;91701.75;;;3.27;68.97
69909;BME280;57190;47.918;8.112;2023-02-02T10:53:23;91687.56;;;3.28;68.73
69909;BME280;57190;47.918;8.112;2023-02-02T10:56:05;91697.50;;;3.13;69.79
69909;BME280;57190;47.918;8.112;2023-02-02T10:59:02;91703.00;;;3.18;69.08
69909;BME280;57190;47.918;8.112;2023-02-02T11:01:30;91701.78;;;3.21;70.00
69909;BME280;57190;47.918;8.112;2023-02-02T11:03:55;91691.63;;;3.38;68.72
69909;BME280;57190;47.918;8.112;2023-02-02T11:06:39;91689.19;;;3.36;68.75
69909;BME280;57190;47.918;8.112;2023-02-02T11:09:16;91685.31;;;3.32;69.30
69909;BME280;57190;47.918;8.112;2023-02-02T11:11:44;91683.72;;;3.31;69.07
69909;BME280;57190;47.918;8.112;2023-02-02T11:14:18;91698.31;;;3.20;69.72
69909;BME280;57190;47.918;8.112;2023-02-02T11:16:59;91712.47;;;2.99;70.06
69909;BME280;57190;47.918;8.112;2023-02-02T11:19:28;91721.78;;;2.88;70.64
69909;BME280;57190;47.918;8.112;2023-02-02T11:21:58;91727.06;;;2.95;70.29
69909;BME280;57190;47.918;8.112;2023-02-02T11:24:28;91698.06;;;2.88;70.84
69909;BME280;57190;47.918;8.112;2023-02-02T11:27:11;91714.88;;;2.87;70.88
69909;BME280;57190;47.918;8.112;2023-02-02T11:37:29;91703.72;;;2.78;70.32
69909;BME280;57190;47.918;8.112;2023-02-02T11:42:48;91702.72;;;2.79;70.56
69909;BME280;57190;47.918;8.112;2023-02-02T11:45:19;91696.44;;;2.80;71.15
69909;BME280;57190;47.918;8.112;2023-02-02T11:47:49;91697.63;;;2.78;70.34
69909;BME280;57190;47.918;8.112;2023-02-02T11:50:23;91688.53;;;2.74;70.77
69909;BME280;57190;47.918;8.112;2023-02-02T11:52:50;91689.56;;;2.79;69.88
69909;BME280;57190;47.918;8.112;2023-02-02T11:55:24;91691.59;;;2.84;70.23
69909;BME280;57190;47.918;8.112;2023-02-02T11:58:21;91703.94;;;2.83;69.44
69909;BME280;57190;47.918;8.112;2023-02-02T12:01:15;91695.47;;;3.02;68.83
69909;BME280;57190;47.918;8.112;2023-02-02T12:03:47;91698.72;;;2.97;69.31
69909;BME280;57190;47.918;8.112;2023-02-02T12:06:20;91695.88;;;3.05;68.23
69909;BME280;57190;47.918;8.112;2023-02-02T12:08:49;91703.59;;;3.27;67.65
69909;BME280;57190;47.918;8.112;2023-02-02T12:11:30;91699.13;;;3.27;67.36
69909;BME280;57190;47.918;8.112;2023-02-02T12:14:20;91698.31;;;3.20;67.22
69909;BME280;57190;47.918;8.112;2023-02-02T12:17:55;91706.03;;;3.15;67.06
69909;BME280;57190;47.918;8.112;2023-02-02T12:47:32;91699.41;;;2.57;67.98
69909;BME280;57190;47.918;8.112;2023-02-02T12:50:56;91701.22;;;2.57;68.43
69909;BME280;57190;47.918;8.112;2023-02-02T12:56:03;91705.69;;;2.56;67.83
69909;BME280;57190;47.918;8.112;2023-02-02T12:58:45;91697.78;;;2.56;68.95
69909;BME280;57190;47.918;8.112;2023-02-02T13:01:28;91696.38;;;2.54;68.69
69909;BME280;57190;47.918;8.112;2023-02-02T13:04:10;91695.13;;;2.49;68.79
69909;BME280;57190;47.918;8.112;2023-02-02T13:12:23;91700.22;;;2.51;69.65
69909;BME280;57190;47.918;8.112;2023-02-02T13:14:53;91697.75;;;2.49;70.25
69909;BME280;57190;47.918;8.112;2023-02-02T13:17:30;91708.28;;;2.49;70.01
69909;BME280;57190;47.918;8.112;2023-02-02T13:20:04;91709.09;;;2.43;70.45
69909;BME280;57190;47.918;8.112;2023-02-02T13:22:34;91709.09;;;2.43;70.86
69909;BME280;57190;47.918;8.112;2023-02-02T13:25:05;91702.59;;;2.39;71.33
69909;BME280;57190;47.918;8.112;2023-02-02T13:27:35;91701.34;;;2.35;71.28
69909;BME280;57190;47.918;8.112;2023-02-02T13:32:50;91705.38;;;2.24;72.08
69909;BME280;57190;47.918;8.112;2023-02-02T13:35:38;91706.16;;;2.18;73.00
69909;BME280;57190;47.918;8.112;2023-02-02T13:38:24;91708.41;;;2.28;71.98
69909;BME280;57190;47.918;8.112;2023-02-02T13:40:53;91713.94;;;2.40;72.31
69909;BME280;57190;47.918;8.112;2023-02-02T13:57:09;91707.41;;;2.29;72.83
69909;BME280;57190;47.918;8.112;2023-02-02T14:02:38;91715.31;;;2.35;72.53
69909;BME280;57190;47.918;8.112;2023-02-02T14:05:06;91709.22;;;2.28;72.63
69909;BME280;57190;47.918;8.112;2023-02-02T14:07:41;91710.63;;;2.24;73.08
69909;BME280;57190;47.918;8.112;2023-02-02T14:10:22;91709.38;;;2.20;72.67
69909;BME280;57190;47.918;8.112;2023-02-02T14:12:48;91703.53;;;2.18;73.21
69909;BME280;57190;47.918;8.112;2023-02-02T14:15:14;91706.16;;;2.18;72.79
69909;BME280;57190;47.918;8.112;2023-02-02T14:20:58;91715.03;;;2.10;73.33
69909;BME280;57190;47.918;8.112;2023-02-02T14:23:48;91718.44;;;2.04;73.83
69909;BME280;57190;47.918;8.112;2023-02-02T14:26:38;91725.31;;;2.05;73.88
69909;BME280;57190;47.918;8.112;2023-02-02T14:34:54;91728.97;;;2.11;73.92
69909;BME280;57190;47.918;8.112;2023-02-02T14:45:46;91758.97;;;2.10;74.39
69909;BME280;57190;47.918;8.112;2023-02-02T14:48:22;91765.38;;;2.00;74.48
69909;BME280;57190;47.918;8.112;2023-02-02T14:50:54;91765.81;;;2.04;74.08
69909;BME280;57190;47.918;8.112;2023-02-02T14:53:33;91773.28;;;2.00;74.89
69909;BME280;57190;47.918;8.112;2023-02-02T14:56:09;91769.00;;;1.99;74.55
69909;BME280;57190;47.918;8.112;2023-02-02T14:58:45;91769.00;;;1.99;74.65
69909;BME280;57190;47.918;8.112;2023-02-02T15:06:38;91769.97;;;1.92;75.52
69909;BME280;57190;47.918;8.112;2023-02-02T15:14:47;91786.72;;;1.84;76.17
69909;BME280;57190;47.918;8.112;2023-02-02T15:23:04;91785.69;;;1.85;76.00
69909;BME280;57190;47.918;8.112;2023-02-02T15:25:50;91793.00;;;1.83;76.15
69909;BME280;57190;47.918;8.112;2023-02-02T15:33:47;91799.06;;;1.83;75.90
69909;BME280;57190;47.918;8.112;2023-02-02T15:36:28;91797.81;;;1.79;76.07
69909;BME280;57190;47.918;8.112;2023-02-02T15:38:58;91776.34;;;1.76;76.32
69909;BME280;57190;47.918;8.112;2023-02-02T15:41:35;91799.47;;;1.80;76.20
69909;BME280;57190;47.918;8.112;2023-02-02T15:44:26;91790.53;;;1.81;76.15
69909;BME280;57190;47.918;8.112;2023-02-02T15:46:53;91793.56;;;1.78;75.96
69909;BME280;57190;47.918;8.112;2023-02-02T15:51:47;91796.38;;;1.77;76.74
69909;BME280;57190;47.918;8.112;2023-02-02T15:54:22;91797.41;;;1.76;76.10
69909;BME280;57190;47.918;8.112;2023-02-02T15:56:48;91810.97;;;1.79;76.37
69909;BME280;57190;47.918;8.112;2023-02-02T15:59:18;91807.50;;;1.79;76.31
69909;BME280;57190;47.918;8.112;2023-02-02T16:04:26;91814.78;;;1.77;76.07